sensor_id;sensor_type;location;lat;lon;timestamp;pressure;altitude;pressure_sealevel;temperature;humidity
55604;BME280;41468;48.838;9.330;2023-04-09T00:02:09;99007.88;;;8.28;83.43
55604;BME280;41468;48.838;9.330;2023-04-09T00:04:36;99000.75;;;8.36;82.58
55604;BME280;41468;48.838;9.330;2023-04-09T00:07:07;99001.28;;;8.29;83.29
55604;BME280;41468;48.838;9.330;2023-04-09T00:09:45;99004.09;;;8.42;83.46
55604;BME280;41468;48.838;9.330;2023-04-09T00:12:11;98998.66;;;8.42;83.31
55604;BME280;41468;48.838;9.330;2023-04-09T00:14:49;98995.31;;;8.36;84.10
55604;BME280;41468;48.838;9.330;2023-04-09T00:17:16;99003.91;;;8.38;84.53
55604;BME280;41468;48.838;9.330;2023-04-09T00:19:43;99001.28;;;8.29;85.00
55604;BME280;41468;48.838;9.330;2023-04-09T00:22:09;98992.91;;;8.34;84.68
55604;BME280;41468;48.838;9.330;2023-04-09T00:24:36;98999.50;;;8.33;84.98
55604;BME280;41468;48.838;9.330;2023-04-09T00:27:03;98996.09;;;8.36;85.15
55604;BME280;41468;48.838;9.330;2023-04-09T00:29:30;99001.09;;;8.34;84.94
55604;BME280;41468;48.838;9.330;2023-04-09T00:31:56;98997.47;;;8.30;85.18
55604;BME280;41468;48.838;9.330;2023-04-09T00:34:33;98993.34;;;8.24;85.42
55604;BME280;41468;48.838;9.330;2023-04-09T00:37:05;98992.75;;;8.39;85.16
55604;BME280;41468;48.838;9.330;2023-04-09T00:39:32;98990.03;;;8.39;85.32
55604;BME280;41468;48.838;9.330;2023-04-09T00:41:59;98992.66;;;8.27;85.69
55604;BME280;41468;48.838;9.330;2023-04-09T00:44:28;98992.38;;;8.08;86.82
55604;BME280;41468;48.838;9.330;2023-04-09T00:46:57;98988.69;;;8.25;86.50
55604;BME280;41468;48.838;9.330;2023-04-09T00:49:34;98994.28;;;8.28;86.01
55604;BME280;41468;48.838;9.330;2023-04-09T00:52:01;98992.91;;;8.22;86.39
55604;BME280;41468;48.838;9.330;2023-04-09T00:54:32;98991.75;;;7.90;87.86
55604;BME280;41468;48.838;9.330;2023-04-09T00:57:00;98993.03;;;8.05;86.83
55604;BME280;41468;48.838;9.330;2023-04-09T00:59:27;98997.53;;;8.22;86.53
55604;BME280;41468;48.838;9.330;2023-04-09T01:01:54;98993.91;;;8.30;85.83
55604;BME280;41468;48.838;9.330;2023-04-09T01:04:25;98991.63;;;8.19;86.36
55604;BME280;41468;48.838;9.330;2023-04-09T01:07:15;98993.34;;;8.24;86.23
55604;BME280;41468;48.838;9.330;2023-04-09T01:09:59;98996.06;;;8.24;85.77
55604;BME280;41468;48.838;9.330;2023-04-09T01:12:51;98987.56;;;8.26;86.07
55604;BME280;41468;48.838;9.330;2023-04-09T01:15:24;98995.34;;;8.15;86.17
55604;BME280;41468;48.838;9.330;2023-04-09T01:18:21;98985.84;;;8.21;86.17
55604;BME280;41468;48.838;9.330;2023-04-09T01:20:58;98990.78;;;8.07;86.07
55604;BME280;41468;48.838;9.330;2023-04-09T01:27:04;98988.25;;;7.68;87.52
55604;BME280;41468;48.838;9.330;2023-04-09T01:29:47;98991.53;;;7.53;89.26
55604;BME280;41468;48.838;9.330;2023-04-09T01:32:16;98986.22;;;7.57;88.69
55604;BME280;41468;48.838;9.330;2023-04-09T01:34:46;98984.00;;;7.59;88.50
55604;BME280;41468;48.838;9.330;2023-04-09T01:37:14;98994.19;;;7.62;88.69
55604;BME280;41468;48.838;9.330;2023-04-09T01:39:41;98991.66;;;7.57;88.54
55604;BME280;41468;48.838;9.330;2023-04-09T01:42:09;98995.06;;;7.53;88.91
55604;BME280;41468;48.838;9.330;2023-04-09T01:44:45;98991.38;;;7.49;89.96
55604;BME280;41468;48.838;9.330;2023-04-09T01:47:12;98997.16;;;7.48;89.81
55604;BME280;41468;48.838;9.330;2023-04-09T01:49:40;98990.59;;;7.49;89.89
55604;BME280;41468;48.838;9.330;2023-04-09T01:52:11;98997.09;;;7.57;90.08
55604;BME280;41468;48.838;9.330;2023-04-09T01:54:38;98995.66;;;7.59;89.44
55604;BME280;41468;48.838;9.330;2023-04-09T01:57:10;98987.84;;;7.58;89.92
55604;BME280;41468;48.838;9.330;2023-04-09T01:59:37;98990.28;;;7.71;89.04
55604;BME280;41468;48.838;9.330;2023-04-09T02:02:09;98994.72;;;7.76;88.42
55604;BME280;41468;48.838;9.330;2023-04-09T02:04:46;98998.28;;;7.89;87.47
55604;BME280;41468;48.838;9.330;2023-04-09T02:10:26;98986.13;;;7.74;87.74
55604;BME280;41468;48.838;9.330;2023-04-09T02:13:03;98990.34;;;7.63;89.01
55604;BME280;41468;48.838;9.330;2023-04-09T02:15:34;98992.34;;;7.53;88.86
55604;BME280;41468;48.838;9.330;2023-04-09T02:18:02;98989.81;;;7.48;89.29
55604;BME280;41468;48.838;9.330;2023-04-09T02:20:28;98992.72;;;7.43;90.13
55604;BME280;41468;48.838;9.330;2023-04-09T02:23:00;98984.78;;;7.59;89.40
55604;BME280;41468;48.838;9.330;2023-04-09T02:25:27;98986.91;;;7.74;88.20
55604;BME280;41468;48.838;9.330;2023-04-09T02:27:54;98985.69;;;7.84;87.81
55604;BME280;41468;48.838;9.330;2023-04-09T02:30:25;98985.06;;;7.87;88.03
55604;BME280;41468;48.838;9.330;2023-04-09T02:32:52;98985.25;;;7.82;88.48
55604;BME280;41468;48.838;9.330;2023-04-09T02:35:18;98982.56;;;7.73;89.06
55604;BME280;41468;48.838;9.330;2023-04-09T02:37:45;98980.69;;;7.74;88.95
55604;BME280;41468;48.838;9.330;2023-04-09T02:40:12;98983.66;;;7.81;88.93
55604;BME280;41468;48.838;9.330;2023-04-09T02:42:39;98986.34;;;7.81;89.51
55604;BME280;41468;48.838;9.330;2023-04-09T02:45:17;98983.91;;;7.88;89.34
55604;BME280;41468;48.838;9.330;2023-04-09T02:47:44;98982.19;;;7.84;89.74
55604;BME280;41468;48.838;9.330;2023-04-09T02:50:11;98983.72;;;7.93;89.14
55604;BME280;41468;48.838;9.330;2023-04-09T02:52:37;98983.19;;;7.79;89.45
55604;BME280;41468;48.838;9.330;2023-04-09T02:55:04;98982.06;;;7.80;89.06
55604;BME280;41468;48.838;9.330;2023-04-09T02:57:31;98984.19;;;7.74;89.76
55604;BME280;41468;48.838;9.330;2023-04-09T02:59:59;98979.94;;;7.65;90.05
55604;BME280;41468;48.838;9.330;2023-04-09T03:02:36;98984.72;;;7.68;89.94
55604;BME280;41468;48.838;9.330;2023-04-09T03:05:04;98977.50;;;7.72;89.38
55604;BME280;41468;48.838;9.330;2023-04-09T03:07:30;98977.16;;;7.52;90.13
55604;BME280;41468;48.838;9.330;2023-04-09T03:09:57;98971.84;;;7.35;91.28
55604;BME280;41468;48.838;9.330;2023-04-09T03:12:29;98963.56;;;7.32;91.27
55604;BME280;41468;48.838;9.330;2023-04-09T03:14:56;98969.91;;;7.36;91.36
55604;BME280;41468;48.838;9.330;2023-04-09T03:17:23;98965.16;;;7.53;90.76
55604;BME280;41468;48.838;9.330;2023-04-09T03:19:52;98969.66;;;7.49;91.00
55604;BME280;41468;48.838;9.330;2023-04-09T03:22:19;98969.06;;;7.44;91.10
55604;BME280;41468;48.838;9.330;2023-04-09T03:24:46;98969.94;;;7.57;90.95
55604;BME280;41468;48.838;9.330;2023-04-09T03:27:13;98970.13;;;7.51;91.23
55604;BME280;41468;48.838;9.330;2023-04-09T03:29:39;98968.53;;;7.50;90.91
55604;BME280;41468;48.838;9.330;2023-04-09T03:32:06;98964.88;;;7.46;91.22
55604;BME280;41468;48.838;9.330;2023-04-09T03:34:37;98962.34;;;7.41;91.15
55604;BME280;41468;48.838;9.330;2023-04-09T03:37:04;98963.50;;;7.40;91.38
55604;BME280;41468;48.838;9.330;2023-04-09T03:39:42;98973.78;;;7.56;90.86
55604;BME280;41468;48.838;9.330;2023-04-09T03:42:08;98971.25;;;7.50;90.59
55604;BME280;41468;48.838;9.330;2023-04-09T03:44:35;98967.88;;;7.53;90.72
55604;BME280;41468;48.838;9.330;2023-04-09T03:47:12;98973.00;;;7.55;90.82
55604;BME280;41468;48.838;9.330;2023-04-09T03:49:43;98975.88;;;7.71;89.44
55604;BME280;41468;48.838;9.330;2023-04-09T03:52:10;98974.19;;;7.66;89.50
55604;BME280;41468;48.838;9.330;2023-04-09T03:54:36;98974.44;;;7.73;88.74
55604;BME280;41468;48.838;9.330;2023-04-09T03:57:03;98963.09;;;7.71;88.83
55604;BME280;41468;48.838;9.330;2023-04-09T03:59:30;98962.56;;;7.78;88.34
55604;BME280;41468;48.838;9.330;2023-04-09T04:01:56;98951.97;;;7.85;88.15
55604;BME280;41468;48.838;9.330;2023-04-09T04:04:29;98962.91;;;7.56;89.31
55604;BME280;41468;48.838;9.330;2023-04-09T04:06:56;98956.28;;;7.44;90.71
55604;BME280;41468;48.838;9.330;2023-04-09T04:09:22;98962.53;;;7.66;89.65
55604;BME280;41468;48.838;9.330;2023-04-09T04:11:49;98957.28;;;7.61;89.46
55604;BME280;41468;48.838;9.330;2023-04-09T04:14:16;98961.31;;;7.55;89.64
55604;BME280;41468;48.838;9.330;2023-04-09T04:16:43;98960.44;;;7.63;89.31
55604;BME280;41468;48.838;9.330;2023-04-09T04:19:09;98957.06;;;7.45;90.28
55604;BME280;41468;48.838;9.330;2023-04-09T04:21:36;98974.38;;;7.40;90.72
55604;BME280;41468;48.838;9.330;2023-04-09T04:24:08;98957.13;;;7.57;90.20
55604;BME280;41468;48.838;9.330;2023-04-09T04:26:34;98965.75;;;7.38;90.73
55604;BME280;41468;48.838;9.330;2023-04-09T04:29:01;98968.06;;;7.48;90.17
55604;BME280;41468;48.838;9.330;2023-04-09T04:31:28;98972.78;;;7.39;90.93
55604;BME280;41468;48.838;9.330;2023-04-09T04:33:54;98980.19;;;7.51;90.11
55604;BME280;41468;48.838;9.330;2023-04-09T04:36:21;98978.22;;;7.39;91.55
55604;BME280;41468;48.838;9.330;2023-04-09T04:38:48;98984.50;;;7.31;92.05
55604;BME280;41468;48.838;9.330;2023-04-09T04:41:15;98983.56;;;7.27;92.61
55604;BME280;41468;48.838;9.330;2023-04-09T04:43:46;98983.56;;;7.27;92.17
55604;BME280;41468;48.838;9.330;2023-04-09T04:46:13;98979.06;;;7.31;91.51
55604;BME280;41468;48.838;9.330;2023-04-09T04:48:40;98982.38;;;7.37;91.57
55604;BME280;41468;48.838;9.330;2023-04-09T04:51:07;98982.50;;;7.40;91.84
55604;BME280;41468;48.838;9.330;2023-04-09T04:53:33;98981.66;;;7.48;91.16
55604;BME280;41468;48.838;9.330;2023-04-09T04:56:00;98981.59;;;7.36;91.25
55604;BME280;41468;48.838;9.330;2023-04-09T04:58:27;98981.38;;;7.41;91.19
55604;BME280;41468;48.838;9.330;2023-04-09T05:00:54;98983.38;;;7.32;91.70
55604;BME280;41468;48.838;9.330;2023-04-09T05:03:21;98983.84;;;7.34;92.55
55604;BME280;41468;48.838;9.330;2023-04-09T05:05:52;98997.03;;;7.44;91.49
55604;BME280;41468;48.838;9.330;2023-04-09T05:08:18;98991.31;;;7.37;92.55
55604;BME280;41468;48.838;9.330;2023-04-09T05:10:45;99003.59;;;7.43;91.75
55604;BME280;41468;48.838;9.330;2023-04-09T05:13:12;98989.41;;;7.38;92.05
55604;BME280;41468;48.838;9.330;2023-04-09T05:15:43;98993.38;;;7.40;92.01
55604;BME280;41468;48.838;9.330;2023-04-09T05:18:14;98999.59;;;7.41;92.29
55604;BME280;41468;48.838;9.330;2023-04-09T05:20:41;98994.03;;;7.37;92.41
55604;BME280;41468;48.838;9.330;2023-04-09T05:23:08;98997.78;;;7.53;91.48
55604;BME280;41468;48.838;9.330;2023-04-09T05:25:43;99005.19;;;7.44;91.94
55604;BME280;41468;48.838;9.330;2023-04-09T05:28:09;99004.28;;;7.61;91.58
55604;BME280;41468;48.838;9.330;2023-04-09T05:30:39;98998.72;;;7.58;89.94
55604;BME280;41468;48.838;9.330;2023-04-09T05:33:06;98997.91;;;7.78;89.12
55604;BME280;41468;48.838;9.330;2023-04-09T05:35:37;98999.63;;;7.83;87.92
55604;BME280;41468;48.838;9.330;2023-04-09T05:38:04;99004.69;;;7.93;87.68
55604;BME280;41468;48.838;9.330;2023-04-09T05:40:31;98997.03;;;7.86;87.61
55604;BME280;41468;48.838;9.330;2023-04-09T05:42:57;98996.44;;;7.81;88.55
55604;BME280;41468;48.838;9.330;2023-04-09T05:45:35;98993.53;;;7.86;88.48
55604;BME280;41468;48.838;9.330;2023-04-09T05:48:02;99000.69;;;7.90;88.51
55604;BME280;41468;48.838;9.330;2023-04-09T05:50:28;99012.19;;;8.08;88.06
55604;BME280;41468;48.838;9.330;2023-04-09T05:52:58;99007.44;;;8.05;87.69
55604;BME280;41468;48.838;9.330;2023-04-09T05:55:32;98994.94;;;8.25;86.91
55604;BME280;41468;48.838;9.330;2023-04-09T05:57:59;98998.53;;;8.17;87.84
55604;BME280;41468;48.838;9.330;2023-04-09T06:00:26;98996.47;;;8.93;87.83
55604;BME280;41468;48.838;9.330;2023-04-09T06:02:52;99000.28;;;8.55;86.01
55604;BME280;41468;48.838;9.330;2023-04-09T06:05:19;98999.91;;;8.56;85.52
55604;BME280;41468;48.838;9.330;2023-04-09T06:07:46;99005.56;;;8.39;86.03
55604;BME280;41468;48.838;9.330;2023-04-09T06:10:13;99011.19;;;8.34;86.31
55604;BME280;41468;48.838;9.330;2023-04-09T06:12:39;99010.13;;;8.26;87.00
55604;BME280;41468;48.838;9.330;2023-04-09T06:15:06;99011.78;;;8.18;87.59
55604;BME280;41468;48.838;9.330;2023-04-09T06:17:33;99019.44;;;8.25;87.60
55604;BME280;41468;48.838;9.330;2023-04-09T06:20:00;99010.00;;;8.23;87.08
55604;BME280;41468;48.838;9.330;2023-04-09T06:22:37;99019.97;;;8.39;85.46
55604;BME280;41468;48.838;9.330;2023-04-09T06:25:04;99016.94;;;8.32;85.58
55604;BME280;41468;48.838;9.330;2023-04-09T06:27:36;99013.38;;;8.40;85.01
55604;BME280;41468;48.838;9.330;2023-04-09T06:30:02;99011.94;;;8.55;83.49
55604;BME280;41468;48.838;9.330;2023-04-09T06:32:29;99001.22;;;8.71;82.24
55604;BME280;41468;48.838;9.330;2023-04-09T06:35:03;99000.09;;;8.84;81.51
55604;BME280;41468;48.838;9.330;2023-04-09T06:37:30;99002.81;;;8.97;81.21
55604;BME280;41468;48.838;9.330;2023-04-09T06:39:56;99006.78;;;8.99;80.76
55604;BME280;41468;48.838;9.330;2023-04-09T06:42:26;98999.88;;;9.02;80.03
55604;BME280;41468;48.838;9.330;2023-04-09T06:44:53;99007.13;;;9.22;79.24
55604;BME280;41468;48.838;9.330;2023-04-09T06:47:20;99010.31;;;9.24;78.86
55604;BME280;41468;48.838;9.330;2023-04-09T06:49:58;99015.72;;;9.61;77.53
55604;BME280;41468;48.838;9.330;2023-04-09T06:52:25;99008.31;;;9.74;77.60
55604;BME280;41468;48.838;9.330;2023-04-09T06:54:52;99010.47;;;9.68;75.73
55604;BME280;41468;48.838;9.330;2023-04-09T06:57:19;99020.16;;;10.06;74.18
55604;BME280;41468;48.838;9.330;2023-04-09T06:59:45;99015.47;;;10.07;75.85
55604;BME280;41468;48.838;9.330;2023-04-09T07:02:17;99012.19;;;10.01;73.08
55604;BME280;41468;48.838;9.330;2023-04-09T07:04:44;99015.19;;;10.24;73.56
55604;BME280;41468;48.838;9.330;2023-04-09T07:07:11;99022.03;;;10.18;73.65
55604;BME280;41468;48.838;9.330;2023-04-09T07:09:38;99017.09;;;10.36;71.53
55604;BME280;41468;48.838;9.330;2023-04-09T07:12:04;99009.44;;;10.42;71.08
55604;BME280;41468;48.838;9.330;2023-04-09T07:14:31;99015.56;;;10.67;73.20
55604;BME280;41468;48.838;9.330;2023-04-09T07:16:58;99013.09;;;10.93;72.78
55604;BME280;41468;48.838;9.330;2023-04-09T07:19:24;99014.59;;;11.06;68.86
55604;BME280;41468;48.838;9.330;2023-04-09T07:21:51;99014.97;;;11.21;67.80
55604;BME280;41468;48.838;9.330;2023-04-09T07:24:18;99022.72;;;11.19;68.15
55604;BME280;41468;48.838;9.330;2023-04-09T07:26:56;99024.03;;;11.25;67.31
55604;BME280;41468;48.838;9.330;2023-04-09T07:29:23;99026.56;;;11.34;66.79
55604;BME280;41468;48.838;9.330;2023-04-09T07:31:50;99024.44;;;11.43;64.92
55604;BME280;41468;48.838;9.330;2023-04-09T07:34:17;99034.63;;;11.26;65.84
55604;BME280;41468;48.838;9.330;2023-04-09T07:36:49;99028.00;;;11.63;64.39
55604;BME280;41468;48.838;9.330;2023-04-09T07:39:20;99023.47;;;11.51;61.86
55604;BME280;41468;48.838;9.330;2023-04-09T07:41:53;99026.59;;;11.69;62.53
55604;BME280;41468;48.838;9.330;2023-04-09T07:44:20;99034.91;;;11.57;60.86
55604;BME280;41468;48.838;9.330;2023-04-09T07:46:46;99033.97;;;11.49;59.61
55604;BME280;41468;48.838;9.330;2023-04-09T07:49:13;99036.97;;;11.28;59.01
55604;BME280;41468;48.838;9.330;2023-04-09T07:51:40;99031.91;;;11.62;59.53
55604;BME280;41468;48.838;9.330;2023-04-09T07:54:07;99037.22;;;11.90;56.23
55604;BME280;41468;48.838;9.330;2023-04-09T07:56:34;99033.72;;;12.28;57.10
55604;BME280;41468;48.838;9.330;2023-04-09T07:59:01;99033.84;;;11.97;56.92
55604;BME280;41468;48.838;9.330;2023-04-09T08:01:27;99032.34;;;12.19;57.65
55604;BME280;41468;48.838;9.330;2023-04-09T08:03:54;99035.16;;;12.42;57.13
55604;BME280;41468;48.838;9.330;2023-04-09T08:06:21;99034.09;;;12.69;57.09
55604;BME280;41468;48.838;9.330;2023-04-09T08:08:52;99043.63;;;12.56;56.24
55604;BME280;41468;48.838;9.330;2023-04-09T08:11:19;99039.69;;;12.53;57.34
55604;BME280;41468;48.838;9.330;2023-04-09T08:13:54;99034.94;;;12.73;55.68
55604;BME280;41468;48.838;9.330;2023-04-09T08:16:21;99043.72;;;12.82;55.48
55604;BME280;41468;48.838;9.330;2023-04-09T08:18:49;99038.19;;;12.79;55.45
55604;BME280;41468;48.838;9.330;2023-04-09T08:21:17;99043.34;;;12.61;55.55
55604;BME280;41468;48.838;9.330;2023-04-09T08:23:48;99043.63;;;12.98;55.63
55604;BME280;41468;48.838;9.330;2023-04-09T08:26:15;99043.88;;;12.70;55.61
55604;BME280;41468;48.838;9.330;2023-04-09T08:28:42;99050.63;;;12.96;55.14
55604;BME280;41468;48.838;9.330;2023-04-09T08:31:09;99040.66;;;13.11;53.44
55604;BME280;41468;48.838;9.330;2023-04-09T08:33:35;99043.25;;;13.00;52.86
55604;BME280;41468;48.838;9.330;2023-04-09T08:36:13;99043.44;;;13.34;51.85
55604;BME280;41468;48.838;9.330;2023-04-09T08:38:44;99053.53;;;13.53;52.80
55604;BME280;41468;48.838;9.330;2023-04-09T08:41:19;99043.13;;;13.39;52.20
55604;BME280;41468;48.838;9.330;2023-04-09T08:43:47;99054.06;;;13.35;51.74
55604;BME280;41468;48.838;9.330;2023-04-09T08:46:24;99054.38;;;13.57;51.82
55604;BME280;41468;48.838;9.330;2023-04-09T08:48:52;99047.00;;;13.91;51.21
55604;BME280;41468;48.838;9.330;2023-04-09T08:51:21;99049.59;;;13.80;50.16
55604;BME280;41468;48.838;9.330;2023-04-09T08:53:54;99048.59;;;13.39;51.26
55604;BME280;41468;48.838;9.330;2023-04-09T08:56:22;99056.16;;;13.45;50.14
55604;BME280;41468;48.838;9.330;2023-04-09T08:58:49;99059.03;;;13.30;50.30
55604;BME280;41468;48.838;9.330;2023-04-09T09:01:28;99067.13;;;13.72;50.67
55604;BME280;41468;48.838;9.330;2023-04-09T09:04:03;99057.84;;;13.80;49.47
55604;BME280;41468;48.838;9.330;2023-04-09T09:06:35;99063.28;;;14.07;47.62
55604;BME280;41468;48.838;9.330;2023-04-09T09:11:38;99066.94;;;14.14;47.06
55604;BME280;41468;48.838;9.330;2023-04-09T09:14:08;99063.88;;;14.23;47.46
55604;BME280;41468;48.838;9.330;2023-04-09T09:16:37;99063.69;;;14.05;47.85
55604;BME280;41468;48.838;9.330;2023-04-09T09:21:58;99067.22;;;14.06;46.80
55604;BME280;41468;48.838;9.330;2023-04-09T09:24:26;99072.97;;;14.57;46.93
55604;BME280;41468;48.838;9.330;2023-04-09T09:26:53;99067.69;;;14.79;46.46
55604;BME280;41468;48.838;9.330;2023-04-09T09:29:20;99062.19;;;14.45;47.52
55604;BME280;41468;48.838;9.330;2023-04-09T09:31:49;99061.97;;;14.57;46.23
55604;BME280;41468;48.838;9.330;2023-04-09T09:34:18;99065.16;;;14.63;45.94
55604;BME280;41468;48.838;9.330;2023-04-09T09:36:45;99067.56;;;14.65;44.79
55604;BME280;41468;48.838;9.330;2023-04-09T09:39:13;99059.38;;;14.38;45.89
55604;BME280;41468;48.838;9.330;2023-04-09T09:41:44;99068.69;;;14.64;45.19
55604;BME280;41468;48.838;9.330;2023-04-09T09:44:31;99073.59;;;15.22;44.74
55604;BME280;41468;48.838;9.330;2023-04-09T09:46:59;99069.31;;;14.84;44.15
55604;BME280;41468;48.838;9.330;2023-04-09T09:49:40;99067.50;;;14.98;42.50
55604;BME280;41468;48.838;9.330;2023-04-09T09:52:23;99065.75;;;15.24;43.12
55604;BME280;41468;48.838;9.330;2023-04-09T09:54:51;99069.19;;;15.14;43.78
55604;BME280;41468;48.838;9.330;2023-04-09T09:57:19;99072.84;;;15.25;43.25
55604;BME280;41468;48.838;9.330;2023-04-09T10:00:02;99061.84;;;14.80;42.38
55604;BME280;41468;48.838;9.330;2023-04-09T10:02:36;99059.56;;;14.52;43.26
55604;BME280;41468;48.838;9.330;2023-04-09T10:05:06;99066.38;;;14.32;43.76
55604;BME280;41468;48.838;9.330;2023-04-09T10:07:35;99053.72;;;14.95;42.46
55604;BME280;41468;48.838;9.330;2023-04-09T10:10:04;99051.31;;;15.38;42.41
55604;BME280;41468;48.838;9.330;2023-04-09T10:12:31;99056.16;;;14.32;43.20
55604;BME280;41468;48.838;9.330;2023-04-09T10:15:00;99053.69;;;14.91;43.79
55604;BME280;41468;48.838;9.330;2023-04-09T10:17:30;99053.22;;;14.48;44.74
55604;BME280;41468;48.838;9.330;2023-04-09T10:20:17;99053.94;;;14.45;44.55
55604;BME280;41468;48.838;9.330;2023-04-09T10:22:47;99066.72;;;14.30;44.61
55604;BME280;41468;48.838;9.330;2023-04-09T10:25:19;99056.72;;;13.85;45.87
55604;BME280;41468;48.838;9.330;2023-04-09T10:28:00;99056.50;;;13.97;43.83
55604;BME280;41468;48.838;9.330;2023-04-09T10:30:33;99055.84;;;14.38;42.57
55604;BME280;41468;48.838;9.330;2023-04-09T10:33:13;99051.25;;;13.85;44.42
55604;BME280;41468;48.838;9.330;2023-04-09T10:35:40;99051.25;;;13.85;44.72
55604;BME280;41468;48.838;9.330;2023-04-09T10:38:08;99052.97;;;13.70;44.71
55604;BME280;41468;48.838;9.330;2023-04-09T10:40:40;99050.94;;;13.63;44.59
55604;BME280;41468;48.838;9.330;2023-04-09T10:43:08;99049.34;;;13.89;44.48
55604;BME280;41468;48.838;9.330;2023-04-09T10:45:39;99050.63;;;13.68;43.87
55604;BME280;41468;48.838;9.330;2023-04-09T10:48:13;99050.63;;;13.68;44.68
55604;BME280;41468;48.838;9.330;2023-04-09T10:50:43;99048.31;;;13.70;44.61
55604;BME280;41468;48.838;9.330;2023-04-09T10:53:22;99044.59;;;13.59;44.43
55604;BME280;41468;48.838;9.330;2023-04-09T10:55:50;99037.00;;;13.49;44.41
55604;BME280;41468;48.838;9.330;2023-04-09T10:58:17;99035.34;;;13.98;44.79
55604;BME280;41468;48.838;9.330;2023-04-09T11:00:50;99041.88;;;14.20;42.56
55604;BME280;41468;48.838;9.330;2023-04-09T11:03:29;99034.56;;;14.31;42.51
55604;BME280;41468;48.838;9.330;2023-04-09T11:06:05;99031.69;;;14.91;41.65
55604;BME280;41468;48.838;9.330;2023-04-09T11:08:35;99033.72;;;14.61;41.06
55604;BME280;41468;48.838;9.330;2023-04-09T11:11:03;99032.50;;;14.95;40.70
55604;BME280;41468;48.838;9.330;2023-04-09T11:13:31;99036.78;;;14.89;40.91
55604;BME280;41468;48.838;9.330;2023-04-09T11:16:02;99027.94;;;15.14;39.55
55604;BME280;41468;48.838;9.330;2023-04-09T11:18:33;99031.91;;;14.38;40.42
55604;BME280;41468;48.838;9.330;2023-04-09T11:21:01;99030.47;;;14.51;41.89
55604;BME280;41468;48.838;9.330;2023-04-09T11:23:31;99027.28;;;14.12;41.63
55604;BME280;41468;48.838;9.330;2023-04-09T11:25:58;99025.63;;;14.07;42.19
55604;BME280;41468;48.838;9.330;2023-04-09T11:28:25;99017.91;;;14.17;42.41
55604;BME280;41468;48.838;9.330;2023-04-09T11:30:52;99023.72;;;14.79;41.45
55604;BME280;41468;48.838;9.330;2023-04-09T11:33:19;99017.19;;;15.50;40.55
55604;BME280;41468;48.838;9.330;2023-04-09T11:35:46;99003.75;;;15.37;40.34
55604;BME280;41468;48.838;9.330;2023-04-09T11:38:14;99016.16;;;15.17;40.10
55604;BME280;41468;48.838;9.330;2023-04-09T11:40:41;99004.69;;;15.59;40.56
55604;BME280;41468;48.838;9.330;2023-04-09T11:43:24;99006.34;;;15.71;39.99
55604;BME280;41468;48.838;9.330;2023-04-09T11:45:51;99002.00;;;15.15;39.53
55604;BME280;41468;48.838;9.330;2023-04-09T11:48:19;99009.53;;;14.73;40.06
55604;BME280;41468;48.838;9.330;2023-04-09T11:50:49;99008.72;;;14.73;40.50
55604;BME280;41468;48.838;9.330;2023-04-09T11:53:17;98999.03;;;14.86;41.69
55604;BME280;41468;48.838;9.330;2023-04-09T11:55:49;98997.63;;;15.07;41.62
55604;BME280;41468;48.838;9.330;2023-04-09T11:58:16;98998.53;;;15.84;41.11
55604;BME280;41468;48.838;9.330;2023-04-09T12:00:43;98996.16;;;15.82;38.23
55604;BME280;41468;48.838;9.330;2023-04-09T12:03:15;99003.47;;;15.01;39.03
55604;BME280;41468;48.838;9.330;2023-04-09T12:05:47;99006.22;;;15.01;40.44
55604;BME280;41468;48.838;9.330;2023-04-09T12:08:22;98996.56;;;15.18;40.64
55604;BME280;41468;48.838;9.330;2023-04-09T12:11:13;98994.94;;;15.69;39.42
55604;BME280;41468;48.838;9.330;2023-04-09T12:13:40;99001.41;;;14.88;39.79
55604;BME280;41468;48.838;9.330;2023-04-09T12:16:11;99000.94;;;14.82;39.30
55604;BME280;41468;48.838;9.330;2023-04-09T12:18:50;99002.59;;;14.15;41.05
55604;BME280;41468;48.838;9.330;2023-04-09T12:21:24;98994.84;;;14.58;41.40
55604;BME280;41468;48.838;9.330;2023-04-09T12:23:53;98997.25;;;14.64;40.66
55604;BME280;41468;48.838;9.330;2023-04-09T12:26:19;98993.19;;;14.91;40.15
55604;BME280;41468;48.838;9.330;2023-04-09T12:28:46;98996.53;;;14.70;40.19
55604;BME280;41468;48.838;9.330;2023-04-09T12:31:13;99006.00;;;14.76;40.29
55604;BME280;41468;48.838;9.330;2023-04-09T12:33:39;99001.00;;;14.48;40.26
55604;BME280;41468;48.838;9.330;2023-04-09T12:36:06;98993.59;;;14.52;41.50
55604;BME280;41468;48.838;9.330;2023-04-09T12:38:44;98993.81;;;14.74;40.61
55604;BME280;41468;48.838;9.330;2023-04-09T12:41:11;98988.66;;;14.69;40.24
55604;BME280;41468;48.838;9.330;2023-04-09T12:43:38;98985.25;;;14.08;40.30
55604;BME280;41468;48.838;9.330;2023-04-09T12:46:05;98988.59;;;14.62;40.48
55604;BME280;41468;48.838;9.330;2023-04-09T12:48:32;98985.97;;;14.72;39.92
55604;BME280;41468;48.838;9.330;2023-04-09T12:50:59;98977.84;;;14.49;40.05
55604;BME280;41468;48.838;9.330;2023-04-09T12:53:27;98981.22;;;14.32;40.45
55604;BME280;41468;48.838;9.330;2023-04-09T12:55:54;98973.88;;;14.43;40.24
55604;BME280;41468;48.838;9.330;2023-04-09T12:58:20;98984.59;;;14.55;39.93
55604;BME280;41468;48.838;9.330;2023-04-09T13:00:47;98975.41;;;14.78;40.40
55604;BME280;41468;48.838;9.330;2023-04-09T13:03:14;98968.97;;;15.08;39.48
55604;BME280;41468;48.838;9.330;2023-04-09T13:05:42;98964.94;;;15.57;40.02
55604;BME280;41468;48.838;9.330;2023-04-09T13:08:09;98966.97;;;15.05;39.11
55604;BME280;41468;48.838;9.330;2023-04-09T13:10:35;98967.88;;;14.34;39.80
55604;BME280;41468;48.838;9.330;2023-04-09T13:13:02;98968.19;;;14.63;39.47
55604;BME280;41468;48.838;9.330;2023-04-09T13:15:29;98965.22;;;14.45;39.58
55604;BME280;41468;48.838;9.330;2023-04-09T13:17:55;98964.38;;;14.37;40.38
55604;BME280;41468;48.838;9.330;2023-04-09T13:20:22;98951.13;;;14.46;41.04
55604;BME280;41468;48.838;9.330;2023-04-09T13:22:49;98954.81;;;14.61;41.38
55604;BME280;41468;48.838;9.330;2023-04-09T13:25:16;98960.66;;;14.56;40.64
55604;BME280;41468;48.838;9.330;2023-04-09T13:27:43;98954.31;;;14.52;40.15
55604;BME280;41468;48.838;9.330;2023-04-09T13:30:10;98953.44;;;14.41;40.19